createdAt,value
2023-01-05T00:02:31.420Z,67.61
2023-01-05T00:05:03.692Z,67.63
2023-01-05T00:07:35.983Z,67.66
2023-01-05T00:10:30.067Z,67.60
2023-01-05T00:13:19.974Z,67.81
2023-01-05T00:16:09.622Z,67.70
2023-01-05T00:19:13.734Z,67.86
2023-01-05T00:22:04.253Z,67.89
2023-01-05T00:24:36.448Z,67.82
2023-01-05T00:27:08.716Z,67.87
2023-01-05T00:29:40.900Z,68.01
2023-01-05T00:32:13.376Z,67.94
2023-01-05T00:34:48.794Z,68.10
2023-01-05T00:37:21.271Z,68.07
2023-01-05T00:39:53.959Z,68.16
2023-01-05T00:42:26.290Z,68.22
2023-01-05T00:44:58.560Z,68.16
2023-01-05T00:47:30.943Z,68.35
2023-01-05T00:50:03.295Z,68.23
2023-01-05T00:52:35.605Z,68.28
2023-01-05T00:55:09.315Z,68.21
2023-01-05T00:57:42.203Z,68.35
2023-01-05T01:00:19.660Z,68.49
2023-01-05T01:02:54.091Z,68.57
2023-01-05T01:05:26.329Z,68.56
2023-01-05T01:07:58.542Z,68.60
2023-01-05T01:10:34.394Z,68.64
2023-01-05T01:13:06.600Z,68.87
2023-01-05T01:15:40.061Z,68.72
2023-01-05T01:18:12.297Z,68.93
2023-01-05T01:20:44.599Z,69.18
2023-01-05T01:23:16.780Z,69.03
2023-01-05T01:25:48.982Z,68.96
2023-01-05T01:28:21.279Z,69.15
2023-01-05T01:30:53.522Z,69.31
2023-01-05T01:33:25.955Z,69.27
2023-01-05T01:35:58.935Z,69.24
2023-01-05T01:38:31.502Z,69.26
2023-01-05T01:41:03.843Z,69.19
2023-01-05T01:43:48.027Z,69.42
2023-01-05T01:46:22.485Z,69.38
2023-01-05T01:48:59.270Z,69.40
2023-01-05T01:51:34.502Z,69.53
2023-01-05T01:54:10.329Z,69.53
2023-01-05T01:56:50.895Z,69.73
2023-01-05T01:59:23.985Z,69.61
2023-01-05T02:02:01.012Z,69.74
2023-01-05T02:04:34.989Z,69.61
2023-01-05T02:07:09.108Z,69.81
2023-01-05T02:09:41.553Z,69.80
2023-01-05T02:12:24.567Z,69.93
2023-01-05T02:15:06.890Z,69.72
2023-01-05T02:17:47.968Z,69.76
2023-01-05T02:20:45.625Z,69.71
2023-01-05T02:23:55.907Z,69.64
2023-01-05T02:27:14.309Z,69.82
2023-01-05T02:30:12.525Z,69.94
2023-01-05T02:32:49.723Z,70.03
2023-01-05T02:35:29.531Z,69.87
2023-01-05T02:38:09.261Z,70.10
2023-01-05T02:40:47.315Z,70.15
2023-01-05T02:43:21.801Z,70.15
2023-01-05T02:45:53.997Z,70.21
2023-01-05T02:48:26.450Z,70.22
2023-01-05T02:51:02.317Z,70.33
2023-01-05T02:53:38.568Z,70.37
2023-01-05T02:56:17.194Z,70.33
2023-01-05T02:58:56.732Z,70.28
2023-01-05T03:01:32.931Z,70.22
2023-01-05T03:04:13.508Z,70.31
2023-01-05T03:06:49.937Z,70.24
2023-01-05T03:09:26.188Z,70.36
2023-01-05T03:12:21.923Z,70.51
2023-01-05T03:14:59.096Z,70.73
2023-01-05T03:17:35.767Z,70.61
2023-01-05T03:20:12.710Z,70.59
2023-01-05T03:23:05.488Z,70.60
2023-01-05T03:25:58.776Z,70.51
2023-01-05T03:28:54.902Z,70.55
2023-01-05T03:31:51.938Z,70.66
2023-01-05T03:34:49.794Z,70.68
2023-01-05T03:37:28.539Z,70.65
2023-01-05T03:40:04.300Z,70.73
2023-01-05T03:42:37.903Z,70.73
2023-01-05T03:45:13.438Z,70.82
2023-01-05T03:47:45.665Z,70.86
2023-01-05T03:50:18.226Z,70.97
2023-01-05T03:52:50.388Z,70.98
2023-01-05T03:55:22.544Z,70.95
2023-01-05T03:57:55.251Z,71.02
2023-01-05T04:00:27.444Z,71.00
2023-01-05T04:02:59.671Z,70.99
2023-01-05T04:05:31.913Z,71.10
2023-01-05T04:08:04.205Z,70.99
2023-01-05T04:10:36.529Z,71.15
2023-01-05T04:13:08.772Z,71.22
2023-01-05T04:15:41.409Z,71.36
2023-01-05T04:18:13.677Z,71.18
2023-01-05T04:20:46.178Z,71.34
2023-01-05T04:23:18.401Z,71.44
2023-01-05T04:25:52.392Z,71.39
2023-01-05T04:28:24.691Z,71.38
2023-01-05T04:30:58.126Z,71.60
2023-01-05T04:33:30.260Z,71.46
2023-01-05T04:36:02.438Z,71.46
2023-01-05T04:38:34.634Z,71.46
2023-01-05T04:41:07.054Z,71.42
2023-01-05T04:43:39.801Z,71.35
2023-01-05T04:46:12.060Z,71.36
2023-01-05T04:48:44.635Z,71.31
2023-01-05T04:51:16.859Z,71.22
2023-01-05T04:53:49.024Z,71.39
2023-01-05T04:56:21.265Z,71.45
2023-01-05T04:58:53.562Z,71.44
2023-01-05T05:01:26.521Z,71.48
2023-01-05T05:03:59.007Z,71.49
2023-01-05T05:06:31.190Z,71.51
2023-01-05T05:09:03.384Z,71.44
2023-01-05T05:11:35.622Z,71.47
2023-01-05T05:14:07.793Z,71.57
2023-01-05T05:16:39.978Z,71.49
2023-01-05T05:19:13.501Z,71.48
2023-01-05T05:21:45.698Z,71.53
2023-01-05T05:24:17.952Z,71.63
2023-01-05T05:26:50.169Z,71.68
2023-01-05T05:29:22.341Z,71.82
2023-01-05T05:31:55.855Z,71.71
2023-01-05T05:34:28.237Z,71.77
2023-01-05T05:37:00.404Z,71.76
2023-01-05T05:39:32.665Z,71.88
2023-01-05T05:42:04.925Z,71.90
2023-01-05T05:44:37.089Z,71.95
2023-01-05T05:47:09.383Z,72.01
2023-01-05T05:49:41.719Z,72.01
2023-01-05T05:52:13.994Z,72.00
2023-01-05T05:54:46.177Z,72.13
2023-01-05T05:57:18.396Z,72.19
2023-01-05T05:59:50.599Z,72.35
2023-01-05T06:02:22.868Z,72.42
2023-01-05T06:04:55.241Z,72.56
2023-01-05T06:07:27.920Z,72.59
2023-01-05T06:10:00.120Z,72.79
2023-01-05T06:12:32.799Z,72.95
2023-01-05T06:15:05.559Z,72.90
2023-01-05T06:17:37.851Z,73.08
2023-01-05T06:20:11.835Z,73.22
2023-01-05T06:22:45.030Z,73.29
2023-01-05T06:25:17.200Z,73.37
2023-01-05T06:27:49.979Z,73.50
2023-01-05T06:30:22.540Z,73.43
2023-01-05T06:32:54.879Z,73.59
2023-01-05T06:35:27.150Z,73.40
2023-01-05T06:37:59.904Z,73.49
2023-01-05T06:40:32.562Z,73.61
2023-01-05T06:43:04.732Z,73.64
2023-01-05T06:45:36.905Z,73.73
2023-01-05T06:48:09.459Z,73.63
2023-01-05T06:50:41.631Z,73.69
2023-01-05T06:53:14.414Z,73.67
2023-01-05T06:55:47.313Z,73.69
2023-01-05T06:58:19.506Z,73.55
2023-01-05T07:00:51.734Z,73.82
2023-01-05T07:03:26.922Z,73.62
2023-01-05T07:05:59.093Z,73.66
2023-01-05T07:08:31.408Z,73.53
2023-01-05T07:11:03.656Z,73.52
2023-01-05T07:13:36.563Z,73.70
2023-01-05T07:16:09.459Z,73.57
2023-01-05T07:18:41.720Z,73.53
2023-01-05T07:21:13.963Z,73.58
2023-01-05T07:23:46.182Z,73.63
2023-01-05T07:26:18.436Z,73.60
2023-01-05T07:28:50.621Z,73.53
2023-01-05T07:31:22.875Z,73.70
2023-01-05T07:33:55.232Z,73.69
2023-01-05T07:36:27.397Z,73.60
2023-01-05T07:38:59.774Z,73.74
2023-01-05T07:41:31.951Z,73.69
2023-01-05T07:44:04.162Z,73.75
2023-01-05T07:46:36.353Z,73.54
2023-01-05T07:49:08.579Z,73.85
2023-01-05T07:51:40.859Z,73.77
2023-01-05T07:54:13.213Z,73.74
2023-01-05T07:56:45.529Z,73.76
2023-01-05T07:59:17.762Z,73.83
2023-01-05T08:01:50.690Z,73.78
2023-01-05T08:04:23.156Z,73.88
2023-01-05T08:06:56.252Z,73.90
2023-01-05T08:09:46.490Z,73.65
2023-01-05T08:12:18.697Z,73.56
2023-01-05T08:14:50.953Z,73.62
2023-01-05T08:17:23.284Z,73.70
2023-01-05T08:19:55.472Z,73.64
2023-01-05T08:22:27.821Z,73.77
2023-01-05T08:25:00.041Z,73.81
2023-01-05T08:27:32.214Z,73.80
2023-01-05T08:30:04.936Z,73.85
2023-01-05T08:32:37.215Z,73.61
2023-01-05T08:35:10.800Z,73.68
2023-01-05T08:37:45.054Z,73.81
2023-01-05T08:40:17.500Z,73.75
2023-01-05T08:42:49.841Z,73.69
2023-01-05T08:45:22.118Z,73.72
2023-01-05T08:47:54.364Z,73.85
2023-01-05T08:50:26.672Z,73.81
2023-01-05T08:52:59.088Z,73.57
2023-01-05T08:55:31.290Z,73.65
2023-01-05T08:58:03.642Z,73.60
2023-01-05T09:00:36.100Z,73.68
2023-01-05T09:03:08.536Z,73.71
2023-01-05T09:05:41.075Z,73.84
2023-01-05T09:08:13.255Z,73.81
2023-01-05T09:10:45.489Z,73.80
2023-01-05T09:13:17.783Z,73.87
2023-01-05T09:15:50.027Z,73.73
2023-01-05T09:18:22.263Z,73.87
2023-01-05T09:20:59.845Z,73.67
2023-01-05T09:23:32.035Z,73.88
2023-01-05T09:26:06.812Z,74.03
2023-01-05T09:28:39.999Z,73.83
2023-01-05T09:31:14.673Z,73.81
2023-01-05T09:33:47.645Z,73.95
2023-01-05T09:36:21.050Z,73.89
2023-01-05T09:38:56.357Z,73.80
2023-01-05T09:41:32.346Z,73.89
2023-01-05T09:44:07.999Z,73.79
2023-01-05T09:46:43.989Z,73.68
2023-01-05T09:49:18.463Z,73.86
2023-01-05T09:51:51.213Z,73.91
2023-01-05T09:54:34.837Z,73.84
2023-01-05T09:57:14.298Z,73.63
2023-01-05T09:59:48.667Z,73.76
2023-01-05T10:02:27.019Z,73.88
2023-01-05T10:05:01.019Z,73.85
2023-01-05T10:07:44.439Z,73.90
2023-01-05T10:10:46.298Z,73.70
2023-01-05T10:13:27.590Z,73.64
2023-01-05T10:15:59.947Z,73.46
2023-01-05T10:18:37.680Z,73.64
2023-01-05T10:21:19.746Z,73.71
2023-01-05T10:24:15.860Z,73.52
2023-01-05T10:27:27.274Z,73.83
2023-01-05T10:29:52.989Z,73.56
2023-01-05T10:32:33.111Z,73.67
2023-01-05T10:38:28.911Z,73.77
2023-01-05T10:41:08.492Z,73.63
2023-01-05T10:43:59.306Z,73.47
2023-01-05T10:46:38.092Z,73.62
2023-01-05T10:49:21.351Z,73.59
2023-01-05T10:51:56.742Z,73.49
2023-01-05T10:54:33.866Z,73.60
2023-01-05T10:57:37.008Z,73.55
2023-01-05T11:00:14.187Z,73.43
2023-01-05T11:03:01.708Z,73.60
2023-01-05T11:05:37.295Z,73.46
2023-01-05T11:08:19.551Z,73.84
2023-01-05T11:10:58.071Z,73.66
2023-01-05T11:13:36.157Z,73.79
2023-01-05T11:16:14.940Z,73.72
2023-01-05T11:18:53.836Z,73.69
2023-01-05T11:21:29.118Z,73.72
2023-01-05T11:24:02.427Z,73.75
2023-01-05T11:26:38.000Z,73.81
2023-01-05T11:29:18.565Z,73.74
2023-01-05T11:31:56.397Z,73.89
2023-01-05T11:34:43.021Z,73.84
2023-01-05T11:37:26.592Z,73.48
2023-01-05T11:40:01.129Z,73.32
2023-01-05T11:42:36.443Z,73.19
2023-01-05T11:45:20.883Z,73.29
2023-01-05T11:47:56.455Z,73.35
2023-01-05T11:50:30.399Z,73.27
2023-01-05T11:53:03.578Z,73.25
2023-01-05T11:55:38.723Z,73.33
2023-01-05T11:58:28.058Z,73.17
2023-01-05T12:01:29.781Z,73.12
2023-01-05T12:04:07.192Z,73.22
2023-01-05T12:07:08.144Z,73.24
2023-01-05T12:09:43.598Z,73.16
2023-01-05T12:12:50.816Z,73.15
2023-01-05T12:15:51.898Z,73.13
2023-01-05T12:18:47.324Z,73.07
2023-01-05T12:21:26.242Z,72.86
2023-01-05T12:24:16.903Z,73.11
2023-01-05T12:27:00.541Z,72.83
2023-01-05T12:36:29.592Z,72.98
2023-01-05T12:39:18.636Z,72.99
2023-01-05T12:42:06.593Z,72.90
2023-01-05T12:44:58.897Z,72.89
2023-01-05T12:47:45.344Z,72.84
2023-01-05T12:50:30.134Z,72.71
2023-01-05T12:53:09.633Z,72.73
2023-01-05T12:55:47.053Z,72.57
2023-01-05T12:58:25.418Z,72.55
2023-01-05T13:00:58.823Z,72.45
2023-01-05T13:03:37.140Z,72.46
2023-01-05T13:06:14.349Z,72.35
2023-01-05T13:08:50.534Z,72.21
2023-01-05T13:11:26.955Z,72.30
2023-01-05T13:14:05.053Z,72.34
2023-01-05T13:16:41.371Z,72.20
2023-01-05T13:19:20.491Z,72.32
2023-01-05T13:21:55.377Z,72.18
2023-01-05T13:24:34.199Z,72.17
2023-01-05T13:27:07.590Z,72.20
2023-01-05T13:29:45.109Z,72.10
2023-01-05T13:32:42.556Z,72.11
2023-01-05T13:35:31.230Z,72.12
2023-01-05T13:38:26.225Z,72.03
2023-01-05T13:41:17.791Z,72.11
2023-01-05T13:44:21.710Z,72.02
2023-01-05T13:47:07.277Z,71.99
2023-01-05T13:50:04.062Z,71.87
2023-01-05T13:52:44.243Z,71.78
2023-01-05T13:55:25.743Z,71.68
2023-01-05T13:57:59.434Z,71.55
2023-01-05T14:00:36.136Z,71.37
2023-01-05T14:03:19.309Z,71.40
2023-01-05T14:05:55.468Z,71.28
2023-01-05T14:08:32.597Z,71.34
2023-01-05T14:11:14.838Z,71.38
2023-01-05T14:13:50.619Z,71.27
2023-01-05T14:16:53.390Z,71.22
2023-01-05T14:19:51.710Z,71.06
2023-01-05T14:22:40.526Z,71.20
2023-01-05T14:25:47.122Z,71.13
2023-01-05T14:28:37.731Z,71.15
2023-01-05T14:31:43.422Z,71.16
2023-01-05T14:34:23.110Z,71.08
2023-01-05T14:37:05.634Z,71.10
2023-01-05T14:39:45.145Z,71.20
2023-01-05T14:42:28.797Z,71.09
2023-01-05T14:45:07.061Z,71.17
2023-01-05T14:47:43.671Z,71.17
2023-01-05T14:50:35.503Z,71.20
2023-01-05T14:53:14.529Z,71.19
2023-01-05T14:56:17.059Z,71.21
2023-01-05T14:59:06.114Z,71.23
2023-01-05T15:01:46.839Z,71.31
2023-01-05T15:04:23.981Z,71.26
2023-01-05T15:07:16.144Z,71.26
2023-01-05T15:10:03.310Z,71.22
2023-01-05T15:12:52.932Z,71.26
2023-01-05T15:15:47.408Z,71.45
2023-01-05T15:18:42.857Z,71.30
2023-01-05T15:21:38.085Z,71.31
2023-01-05T15:24:38.421Z,71.27
2023-01-05T15:27:31.563Z,71.28
2023-01-05T15:30:21.855Z,71.34
2023-01-05T15:33:01.604Z,71.26
2023-01-05T15:35:37.852Z,71.37
2023-01-05T15:38:25.874Z,71.33
2023-01-05T15:41:06.175Z,71.29
2023-01-05T15:43:42.688Z,71.41
2023-01-05T15:46:18.785Z,71.38
2023-01-05T15:48:54.525Z,71.27
2023-01-05T15:51:29.261Z,71.28
2023-01-05T15:54:05.430Z,71.27
2023-01-05T15:56:42.044Z,71.25
2023-01-05T15:59:25.292Z,71.23
2023-01-05T16:01:57.783Z,71.24
2023-01-05T16:04:30.339Z,71.15
2023-01-05T16:07:05.706Z,71.19
2023-01-05T16:09:41.046Z,71.11
2023-01-05T16:12:24.325Z,71.14
2023-01-05T16:15:01.733Z,71.12
2023-01-05T16:17:37.447Z,71.03
2023-01-05T16:20:17.211Z,70.98
2023-01-05T16:22:57.921Z,71.01
2023-01-05T16:25:38.834Z,71.00
2023-01-05T16:28:18.908Z,71.03
2023-01-05T16:30:52.646Z,70.93
2023-01-05T16:33:35.880Z,71.04
2023-01-05T16:36:20.493Z,71.02
2023-01-05T16:38:52.749Z,71.02
2023-01-05T16:41:27.478Z,70.92
2023-01-05T16:44:02.027Z,70.93
2023-01-05T16:46:40.001Z,71.06
2023-01-05T16:49:41.139Z,71.00
2023-01-05T16:52:27.391Z,70.98
2023-01-05T16:55:30.388Z,70.95
2023-01-05T16:58:04.377Z,71.13
2023-01-05T17:00:39.676Z,70.93
2023-01-05T17:03:32.711Z,70.94
2023-01-05T17:06:05.311Z,70.96
2023-01-05T17:08:37.893Z,70.89
2023-01-05T17:11:13.293Z,71.00
2023-01-05T17:13:49.087Z,70.90
2023-01-05T17:16:22.320Z,70.85
2023-01-05T17:18:54.692Z,70.84
2023-01-05T17:21:28.685Z,70.80
2023-01-05T17:24:02.643Z,70.81
2023-01-05T17:26:40.402Z,70.97
2023-01-05T17:29:23.179Z,70.92
2023-01-05T17:31:55.915Z,70.76
2023-01-05T17:34:28.295Z,70.87
2023-01-05T17:37:02.632Z,70.82
2023-01-05T17:39:34.803Z,70.90
2023-01-05T17:42:24.461Z,70.75
2023-01-05T17:44:56.757Z,70.79
2023-01-05T17:47:29.081Z,70.72
2023-01-05T17:50:01.317Z,70.61
2023-01-05T17:52:33.658Z,70.54
2023-01-05T17:55:06.551Z,70.75
2023-01-05T17:57:38.926Z,70.56
2023-01-05T18:00:15.440Z,70.57
2023-01-05T18:02:48.005Z,70.52
2023-01-05T18:05:20.914Z,70.48
2023-01-05T18:07:53.847Z,70.50
2023-01-05T18:10:29.071Z,70.42
2023-01-05T18:13:01.576Z,70.40
2023-01-05T18:15:34.160Z,70.33
2023-01-05T18:18:07.072Z,70.43
2023-01-05T18:20:41.044Z,70.44
2023-01-05T18:23:13.549Z,70.45
2023-01-05T18:25:45.770Z,70.30
2023-01-05T18:28:18.144Z,70.29
2023-01-05T18:30:50.360Z,70.23
2023-01-05T18:33:22.660Z,70.26
2023-01-05T18:38:27.176Z,70.02
2023-01-05T18:40:59.324Z,70.03
2023-01-05T18:43:32.701Z,70.06
2023-01-05T18:46:05.567Z,69.98
2023-01-05T18:48:37.742Z,69.93
2023-01-05T18:51:11.034Z,69.73
2023-01-05T18:53:43.196Z,69.82
2023-01-05T18:56:16.902Z,69.85
2023-01-05T18:58:49.081Z,69.72
2023-01-05T19:01:23.108Z,69.66
2023-01-05T19:03:55.706Z,69.73
2023-01-05T19:06:29.005Z,69.72
2023-01-05T19:09:05.394Z,69.67
2023-01-05T19:11:39.573Z,69.50
2023-01-05T19:14:12.777Z,69.61
2023-01-05T19:16:44.986Z,69.48
2023-01-05T19:19:19.560Z,69.50
2023-01-05T19:21:52.314Z,69.33
2023-01-05T19:24:26.732Z,69.35
2023-01-05T19:26:58.934Z,69.27
2023-01-05T19:29:31.180Z,69.22
2023-01-05T19:32:03.357Z,69.17
2023-01-05T19:34:35.536Z,69.01
2023-01-05T19:37:07.942Z,69.15
2023-01-05T19:39:40.389Z,69.10
2023-01-05T19:42:12.671Z,68.91
2023-01-05T19:44:46.347Z,69.01
2023-01-05T19:47:18.516Z,68.94
2023-01-05T19:49:50.705Z,69.01
2023-01-05T19:52:29.703Z,68.87
2023-01-05T19:55:02.108Z,68.81
2023-01-05T19:57:34.483Z,68.82
2023-01-05T20:00:08.722Z,68.83
2023-01-05T20:02:42.312Z,68.72
2023-01-05T20:05:15.156Z,68.71
2023-01-05T20:07:47.339Z,68.53
2023-01-05T20:10:20.327Z,68.57
2023-01-05T20:12:53.742Z,68.63
2023-01-05T20:15:26.049Z,68.55
2023-01-05T20:17:58.265Z,68.65
2023-01-05T20:20:30.569Z,68.45
2023-01-05T20:23:02.711Z,68.48
2023-01-05T20:25:34.961Z,68.43
2023-01-05T20:28:07.914Z,68.31
2023-01-05T20:30:40.177Z,68.28
2023-01-05T20:33:13.114Z,68.36
2023-01-05T20:35:45.292Z,68.26
2023-01-05T20:38:17.586Z,68.32
2023-01-05T20:40:49.730Z,68.18
2023-01-05T20:43:21.895Z,68.42
2023-01-05T20:45:54.093Z,68.41
2023-01-05T20:48:26.267Z,68.30
2023-01-05T20:51:05.137Z,68.40
2023-01-05T20:53:38.579Z,68.33
2023-01-05T20:56:13.246Z,68.30
2023-01-05T20:58:47.131Z,68.17
2023-01-05T21:01:20.335Z,68.13
2023-01-05T21:03:53.051Z,68.17
2023-01-05T21:06:25.238Z,68.19
2023-01-05T21:08:58.165Z,68.13
2023-01-05T21:11:30.844Z,68.13
2023-01-05T21:14:06.332Z,68.20
2023-01-05T21:16:40.890Z,68.16
2023-01-05T21:19:17.897Z,67.98
2023-01-05T21:21:51.788Z,68.01
2023-01-05T21:24:24.782Z,68.07
2023-01-05T21:26:57.480Z,68.10
2023-01-05T21:29:29.866Z,67.93
2023-01-05T21:32:02.159Z,67.97
2023-01-05T21:34:34.432Z,68.03
2023-01-05T21:37:06.610Z,67.98
2023-01-05T21:39:38.807Z,67.93
2023-01-05T21:42:28.901Z,67.80
2023-01-05T21:45:01.733Z,67.76
2023-01-05T21:47:36.038Z,67.92
2023-01-05T21:50:10.241Z,67.90
2023-01-05T21:52:59.902Z,67.93
2023-01-05T21:55:50.253Z,67.87
2023-01-05T21:58:22.409Z,67.84
2023-01-05T22:00:59.273Z,67.75
2023-01-05T22:03:31.778Z,67.75
2023-01-05T22:06:03.973Z,67.75
2023-01-05T22:08:36.183Z,67.76
2023-01-05T22:11:08.781Z,67.61
2023-01-05T22:13:42.032Z,67.64
2023-01-05T22:16:14.622Z,67.73
2023-01-05T22:18:46.819Z,67.61
2023-01-05T22:21:19.063Z,67.60
2023-01-05T22:23:51.238Z,67.75
2023-01-05T22:26:23.872Z,67.50
2023-01-05T22:28:56.188Z,67.58
2023-01-05T22:31:30.859Z,67.62
2023-01-05T22:34:03.694Z,67.48
2023-01-05T22:36:35.858Z,67.48
2023-01-05T22:39:08.167Z,67.54
2023-01-05T22:41:40.390Z,67.47
2023-01-05T22:44:13.797Z,67.47
2023-01-05T22:46:46.010Z,67.38
2023-01-05T22:49:18.360Z,67.34
2023-01-05T22:51:50.808Z,67.35
2023-01-05T22:54:23.285Z,67.31
2023-01-05T22:56:55.740Z,67.46
2023-01-05T22:59:28.748Z,67.25
2023-01-05T23:02:01.039Z,67.30
2023-01-05T23:04:33.554Z,67.27
2023-01-05T23:07:05.760Z,67.32
2023-01-05T23:09:38.462Z,67.25
2023-01-05T23:12:12.036Z,67.31
2023-01-05T23:14:44.919Z,67.31
2023-01-05T23:17:17.113Z,67.17
2023-01-05T23:19:49.314Z,67.25
2023-01-05T23:22:21.805Z,67.38
2023-01-05T23:24:54.160Z,67.32
2023-01-05T23:27:26.340Z,67.35
2023-01-05T23:29:58.474Z,67.00
2023-01-05T23:32:30.679Z,67.17
2023-01-05T23:35:02.981Z,67.14
2023-01-05T23:37:35.192Z,67.08
2023-01-05T23:40:09.461Z,67.23
2023-01-05T23:42:46.254Z,66.95
2023-01-05T23:45:18.768Z,67.04
2023-01-05T23:47:51.186Z,67.06
2023-01-05T23:50:23.391Z,66.90
2023-01-05T23:52:55.682Z,66.92
2023-01-05T23:55:29.029Z,66.89
2023-01-05T23:58:01.593Z,66.86
